createdAt,value
2022-08-28T00:00:46.193Z,16.74
2022-08-28T00:05:47.929Z,16.79
2022-08-28T00:10:49.928Z,16.76
2022-08-28T00:15:55.372Z,16.66
2022-08-28T00:20:57.917Z,16.64
2022-08-28T00:26:00.374Z,16.63
2022-08-28T00:31:05.212Z,16.57
2022-08-28T00:36:06.872Z,16.52
2022-08-28T00:41:08.372Z,16.56
2022-08-28T00:46:16.276Z,16.57
2022-08-28T00:51:38.572Z,16.60
2022-08-28T00:56:41.228Z,16.58
2022-08-28T01:01:45.441Z,16.58
2022-08-28T01:06:52.491Z,16.54
2022-08-28T01:11:59.410Z,16.54
2022-08-28T01:17:00.951Z,16.49
2022-08-28T01:22:37.309Z,16.49
2022-08-28T01:27:41.815Z,16.48
2022-08-28T01:32:49.983Z,16.41
2022-08-28T01:37:52.624Z,16.38
2022-08-28T01:42:55.096Z,16.45
2022-08-28T01:47:56.634Z,16.48
2022-08-28T01:52:58.125Z,16.38
2022-08-28T01:57:59.926Z,16.39
2022-08-28T02:03:02.056Z,16.43
2022-08-28T02:08:05.373Z,16.45
2022-08-28T02:13:08.290Z,16.51
2022-08-28T02:18:10.853Z,16.59
2022-08-28T02:23:12.609Z,16.60
2022-08-28T02:28:14.412Z,16.53
2022-08-28T02:33:16.292Z,16.50
2022-08-28T02:38:18.891Z,16.50
2022-08-28T02:43:20.444Z,16.37
2022-08-28T02:48:21.919Z,16.52
2022-08-28T02:53:23.681Z,16.59
2022-08-28T02:58:26.860Z,16.63
2022-08-28T03:03:31.651Z,16.66
2022-08-28T03:08:33.445Z,16.65
2022-08-28T03:13:35.296Z,16.64
2022-08-28T03:18:37.243Z,16.59
2022-08-28T03:23:39.218Z,16.50
2022-08-28T03:28:46.670Z,16.44
2022-08-28T03:33:48.615Z,16.37
2022-08-28T03:38:52.348Z,16.37
2022-08-28T03:43:53.825Z,16.35
2022-08-28T03:48:55.694Z,16.34
2022-08-28T03:53:59.367Z,16.35
2022-08-28T03:59:02.251Z,16.35
2022-08-28T04:04:04.341Z,16.36
2022-08-28T04:09:05.977Z,16.37
2022-08-28T04:14:07.534Z,16.33
2022-08-28T04:19:09.077Z,16.32
2022-08-28T04:24:13.169Z,16.31
2022-08-28T04:29:16.021Z,16.33
2022-08-28T04:34:17.956Z,16.30
2022-08-28T04:39:19.800Z,16.38
2022-08-28T04:44:21.286Z,16.41
2022-08-28T04:49:22.984Z,16.46
2022-08-28T04:54:27.496Z,16.48
2022-08-28T04:59:29.610Z,16.53
2022-08-28T05:04:31.108Z,16.62
2022-08-28T05:09:34.833Z,16.66
2022-08-28T05:14:36.641Z,16.63
2022-08-28T05:19:38.163Z,16.75
2022-08-28T05:24:40.141Z,16.85
2022-08-28T05:29:41.641Z,16.91
2022-08-28T05:34:43.130Z,16.97
2022-08-28T05:39:44.619Z,17.03
2022-08-28T05:44:46.107Z,17.09
2022-08-28T05:49:47.591Z,17.12
2022-08-28T05:54:52.538Z,17.17
2022-08-28T05:59:54.022Z,17.16
2022-08-28T06:04:55.511Z,17.34
2022-08-28T06:09:57.010Z,17.49
2022-08-28T06:14:58.762Z,17.62
2022-08-28T06:20:00.246Z,17.67
2022-08-28T06:25:03.766Z,17.84
2022-08-28T06:30:08.845Z,17.80
2022-08-28T06:35:10.355Z,17.84
2022-08-28T06:40:12.510Z,18.08
2022-08-28T06:45:14.041Z,18.19
2022-08-28T06:50:16.356Z,18.47
2022-08-28T06:55:18.190Z,18.81
2022-08-28T07:00:19.803Z,19.22
2022-08-28T07:05:21.461Z,19.44
2022-08-28T07:10:22.985Z,19.51
2022-08-28T07:15:24.476Z,19.46
2022-08-28T07:20:25.966Z,19.61
2022-08-28T07:25:27.561Z,19.70
2022-08-28T07:30:29.258Z,19.71
2022-08-28T07:35:30.745Z,19.91
2022-08-28T07:40:32.314Z,20.20
2022-08-28T07:45:35.818Z,20.13
2022-08-28T07:50:37.535Z,20.13
2022-08-28T07:55:39.037Z,20.23
2022-08-28T08:00:41.382Z,20.43
2022-08-28T08:05:55.329Z,20.50
2022-08-28T08:11:02.237Z,20.51
2022-08-28T08:16:05.751Z,20.49
2022-08-28T08:21:09.914Z,20.55
2022-08-28T08:26:13.855Z,20.69
2022-08-28T08:31:17.088Z,20.70
2022-08-28T08:36:22.434Z,20.68
2022-08-28T08:41:47.955Z,20.63
2022-08-28T08:46:57.861Z,20.81
2022-08-28T08:52:13.345Z,21.09
2022-08-28T08:57:15.021Z,21.32
2022-08-28T09:02:31.539Z,21.38
2022-08-28T09:07:44.377Z,21.18
2022-08-28T09:13:00.966Z,21.07
2022-08-28T09:18:19.166Z,21.05
2022-08-28T09:23:23.938Z,21.18
2022-08-28T09:28:37.569Z,21.34
2022-08-28T09:33:48.852Z,21.48
2022-08-28T09:39:12.126Z,21.66
2022-08-28T09:44:17.230Z,21.58
2022-08-28T09:49:28.699Z,21.77
2022-08-28T09:54:31.908Z,21.85
2022-08-28T09:59:33.654Z,21.67
2022-08-28T10:05:01.040Z,21.95
2022-08-28T10:10:18.659Z,21.63
2022-08-28T10:15:43.442Z,21.65
2022-08-28T10:21:01.291Z,21.85
2022-08-28T10:26:26.799Z,21.86
2022-08-28T10:31:37.207Z,22.04
2022-08-28T10:36:38.788Z,22.20
2022-08-28T10:41:49.293Z,22.37
2022-08-28T10:46:53.666Z,22.33
2022-08-28T10:52:05.189Z,22.30
2022-08-28T10:57:39.423Z,22.31
2022-08-28T11:02:45.699Z,21.95
2022-08-28T11:07:53.078Z,22.03
2022-08-28T11:12:54.954Z,22.00
2022-08-28T11:18:15.141Z,21.90
2022-08-28T11:23:41.532Z,21.98
2022-08-28T11:28:47.326Z,21.73
2022-08-28T11:33:52.482Z,21.69
2022-08-28T11:38:54.168Z,21.95
2022-08-28T11:44:13.956Z,22.00
2022-08-28T11:49:27.406Z,22.02
2022-08-28T11:54:52.916Z,21.96
2022-08-28T12:00:10.598Z,21.81
2022-08-28T12:05:15.198Z,21.91
2022-08-28T12:10:22.609Z,21.87
2022-08-28T12:15:27.227Z,21.85
2022-08-28T12:20:58.558Z,21.69
2022-08-28T12:26:04.702Z,21.42
2022-08-28T12:31:06.244Z,21.60
2022-08-28T12:36:15.648Z,21.47
2022-08-28T12:41:18.346Z,21.39
2022-08-28T12:46:25.286Z,21.53
2022-08-28T12:51:30.454Z,21.32
2022-08-28T12:56:34.869Z,21.29
2022-08-28T13:01:36.594Z,21.14
2022-08-28T13:06:39.595Z,21.16
2022-08-28T13:11:47.350Z,21.29
2022-08-28T13:16:48.984Z,21.19
2022-08-28T13:21:58.610Z,21.22
2022-08-28T13:27:09.029Z,21.15
2022-08-28T13:32:18.311Z,20.87
2022-08-28T13:37:46.779Z,20.92
2022-08-28T13:42:48.555Z,20.53
2022-08-28T13:47:50.170Z,20.45
2022-08-28T13:52:51.766Z,20.51
2022-08-28T13:57:54.500Z,20.52
2022-08-28T14:03:15.512Z,20.43
2022-08-28T14:08:17.068Z,20.43
2022-08-28T14:13:19.824Z,20.32
2022-08-28T14:18:21.443Z,20.39
2022-08-28T14:23:23.119Z,20.29
2022-08-28T14:28:24.659Z,20.20
2022-08-28T14:33:26.225Z,20.46
2022-08-28T14:38:29.388Z,20.29
2022-08-28T14:43:31.597Z,20.11
2022-08-28T14:48:34.732Z,20.25
2022-08-28T14:53:37.267Z,20.12
2022-08-28T14:58:39.333Z,20.23
2022-08-28T15:03:41.424Z,20.20
2022-08-28T15:08:43.107Z,20.05
2022-08-28T15:13:46.700Z,19.95
2022-08-28T15:18:48.398Z,20.19
2022-08-28T15:23:51.633Z,20.18
2022-08-28T15:28:55.869Z,19.97
2022-08-28T15:33:58.113Z,19.94
2022-08-28T15:39:18.444Z,19.88
2022-08-28T15:44:20.034Z,19.79
2022-08-28T15:49:23.890Z,19.76
2022-08-28T15:54:25.765Z,19.71
2022-08-28T15:59:48.846Z,19.76
2022-08-28T16:04:49.708Z,19.73
2022-08-28T16:09:52.186Z,19.68
2022-08-28T16:14:53.902Z,19.86
2022-08-28T16:19:55.456Z,19.79
2022-08-28T16:24:57.347Z,19.77
2022-08-28T16:29:58.933Z,19.70
2022-08-28T16:35:03.036Z,19.68
2022-08-28T16:40:06.575Z,19.69
2022-08-28T16:45:08.588Z,19.66
2022-08-28T16:50:14.088Z,19.58
2022-08-28T16:55:16.109Z,19.69
2022-08-28T17:00:18.828Z,19.56
2022-08-28T17:05:20.715Z,19.71
2022-08-28T17:10:24.554Z,19.55
2022-08-28T17:15:26.399Z,19.45
2022-08-28T17:20:46.813Z,19.47
2022-08-28T17:26:41.337Z,19.57
2022-08-28T17:31:43.847Z,19.59
2022-08-28T17:36:45.583Z,19.55
2022-08-28T17:41:47.134Z,19.51
2022-08-28T17:46:48.731Z,19.38
2022-08-28T17:51:51.079Z,19.43
2022-08-28T17:56:53.257Z,19.36
2022-08-28T18:01:55.424Z,19.35
2022-08-28T18:06:57.072Z,19.30
2022-08-28T18:11:58.626Z,19.24
2022-08-28T18:17:00.560Z,19.20
2022-08-28T18:22:02.187Z,19.10
2022-08-28T18:27:05.168Z,19.10
2022-08-28T18:32:07.633Z,19.05
2022-08-28T18:37:09.608Z,18.92
2022-08-28T18:42:11.267Z,18.79
2022-08-28T18:47:12.897Z,18.66
2022-08-28T18:52:14.503Z,18.59
2022-08-28T18:57:18.617Z,18.64
2022-08-28T19:02:21.184Z,18.66
2022-08-28T19:07:22.828Z,18.42
2022-08-28T19:12:25.667Z,18.57
2022-08-28T19:17:27.917Z,18.56
2022-08-28T19:22:33.897Z,18.45
2022-08-28T19:27:36.047Z,18.33
2022-08-28T19:32:37.618Z,18.38
2022-08-28T19:37:42.584Z,18.34
2022-08-28T19:42:44.454Z,18.27
2022-08-28T19:47:47.048Z,18.27
2022-08-28T19:52:48.591Z,18.28
2022-08-28T19:57:50.452Z,18.19
2022-08-28T20:02:52.483Z,18.08
2022-08-28T20:07:54.207Z,18.03
2022-08-28T20:12:56.315Z,17.91
2022-08-28T20:17:57.923Z,17.85
2022-08-28T20:22:59.645Z,17.76
2022-08-28T20:28:02.005Z,17.78
2022-08-28T20:33:03.749Z,17.74
2022-08-28T20:38:05.725Z,17.67
2022-08-28T20:43:07.257Z,17.37
2022-08-28T20:48:08.799Z,17.45
2022-08-28T20:53:10.346Z,17.31
2022-08-28T20:58:13.333Z,17.19
2022-08-28T21:03:15.703Z,17.10
2022-08-28T21:08:17.463Z,16.93
2022-08-28T21:13:19.564Z,16.80
2022-08-28T21:18:21.096Z,16.73
2022-08-28T21:23:24.946Z,16.63
2022-08-28T21:28:26.704Z,16.57
2022-08-28T21:33:28.745Z,16.81
2022-08-28T21:38:30.285Z,16.50
2022-08-28T21:43:32.207Z,16.85
2022-08-28T21:48:36.147Z,16.89
2022-08-28T21:53:39.007Z,17.04
2022-08-28T21:58:40.637Z,17.21
2022-08-28T22:03:43.980Z,17.20
2022-08-28T22:08:47.107Z,17.21
2022-08-28T22:13:49.764Z,17.28
2022-08-28T22:18:51.771Z,17.24
2022-08-28T22:23:53.318Z,17.13
2022-08-28T22:28:55.887Z,17.04
2022-08-28T22:33:57.648Z,17.30
2022-08-28T22:38:59.151Z,17.21
2022-08-28T22:44:00.723Z,17.33
2022-08-28T22:49:02.877Z,17.45
2022-08-28T22:54:04.965Z,17.28
2022-08-28T22:59:06.515Z,17.27
2022-08-28T23:04:09.117Z,17.42
2022-08-28T23:09:10.946Z,17.38
2022-08-28T23:14:13.123Z,17.43
2022-08-28T23:19:15.311Z,17.49
2022-08-28T23:24:17.569Z,17.38
2022-08-28T23:29:19.185Z,17.32
2022-08-28T23:34:20.972Z,17.27
2022-08-28T23:39:23.002Z,17.32
2022-08-28T23:44:26.237Z,17.30
2022-08-28T23:49:28.192Z,17.31
2022-08-28T23:54:30.448Z,17.21
2022-08-28T23:59:32.624Z,17.30
